Time;durP1;ratioP1;P1;durP2;ratioP2;P2;SDS_P1;SDS_P2;PMS_P1;PMS_P2;Temp;Humidity;BMP_temperature;BMP_pressure;BME280_temperature;BME280_humidity;BME280_pressure;Samples;Min_cycle;Max_cycle;Signal;HPM_P1;HPM_P2
2022/01/27 00:00:01;;;;;;;20.27;9.63;;;4.40;99.90;;;;;;5069774;28;20283;-79
2022/01/27 00:02:36;;;;;;;21.58;10.57;;;4.60;99.90;;;;;;5047409;28;20645;-77
2022/01/27 00:05:15;;;;;;;15.50;8.80;;;4.60;99.90;;;;;;5051579;28;20196;-78
2022/01/27 00:07:43;;;;;;;23.70;10.07;;;4.60;99.90;;;;;;5050675;28;20605;-78
2022/01/27 00:10:23;;;;;;;26.20;10.13;;;4.60;99.90;;;;;;5054977;28;20210;-76
2022/01/27 00:12:56;;;;;;;21.42;9.07;;;4.60;99.90;;;;;;5047336;28;20244;-77
2022/01/27 00:15:30;;;;;;;22.98;9.07;;;4.80;99.90;;;;;;5063540;28;20220;-80
2022/01/27 00:18:02;;;;;;;22.95;11.93;;;4.60;99.90;;;;;;5053719;28;20206;-78
2022/01/27 00:20:32;;;;;;;19.00;9.65;;;4.60;99.90;;;;;;5062073;28;20655;-76
2022/01/27 00:23:00;;;;;;;22.20;12.18;;;4.50;99.90;;;;;;5052529;28;20292;-76
2022/01/27 00:25:29;;;;;;;21.88;11.30;;;4.50;99.90;;;;;;5053918;28;20210;-76
2022/01/27 00:27:57;;;;;;;24.55;12.40;;;4.20;99.90;;;;;;5061362;28;20312;-76
2022/01/27 00:30:25;;;;;;;18.17;10.38;;;4.10;99.90;;;;;;5056215;28;20213;-78
2022/01/27 00:32:54;;;;;;;22.85;10.25;;;4.20;99.90;;;;;;5044302;28;20701;-77
2022/01/27 00:35:22;;;;;;;18.95;10.70;;;4.10;99.90;;;;;;5046254;28;20205;-77
2022/01/27 00:37:52;;;;;;;16.38;9.80;;;4.00;99.90;;;;;;5044552;28;20279;-78
2022/01/27 00:40:21;;;;;;;17.40;9.50;;;4.10;99.90;;;;;;5054489;28;20301;-77
2022/01/27 00:42:50;;;;;;;27.92;12.05;;;4.30;99.90;;;;;;5057554;28;20711;-78
2022/01/27 00:45:18;;;;;;;22.15;10.52;;;4.30;99.90;;;;;;5054634;28;20205;-80
2022/01/27 00:47:46;;;;;;;22.33;10.90;;;4.40;99.90;;;;;;5058673;28;20717;-78
2022/01/27 00:50:17;;;;;;;24.63;10.10;;;4.50;99.90;;;;;;5057738;28;20324;-76
2022/01/27 00:52:49;;;;;;;23.75;11.48;;;4.40;99.90;;;;;;5055623;28;20204;-77
2022/01/27 00:55:21;;;;;;;23.55;10.95;;;4.50;99.90;;;;;;5049634;28;20212;-80
2022/01/27 00:58:04;;;;;;;23.50;11.52;;;4.50;99.90;;;;;;5053277;28;21033;-77
2022/01/27 01:00:36;;;;;;;21.83;11.70;;;4.50;99.90;;;;;;5055951;28;20267;-76
2022/01/27 01:03:08;;;;;;;17.88;10.65;;;4.40;99.90;;;;;;5055945;28;20201;-78
2022/01/27 01:05:59;;;;;;;21.38;9.45;;;4.30;99.90;;;;;;5055634;28;20283;-78
2022/01/27 01:16:56;;;;;;;18.88;10.73;;;4.40;99.90;;;;;;5051598;28;20219;-78
2022/01/27 01:19:35;;;;;;;21.73;11.02;;;4.40;99.90;;;;;;5054178;28;20564;-78
2022/01/27 01:29:24;;;;;;;18.67;10.20;;;4.40;99.90;;;;;;5059198;28;20629;-78
2022/01/27 01:30:47;;;;;;;27.13;10.15;;;4.30;99.90;;;;;;5037229;28;20239;-76
2022/01/27 01:33:21;;;;;;;21.52;11.55;;;4.40;99.90;;;;;;5058853;28;20279;-76
2022/01/27 01:36:00;;;;;;;22.30;11.15;;;4.30;99.90;;;;;;5050122;28;20213;-77
2022/01/27 01:38:30;;;;;;;19.52;9.85;;;4.30;99.90;;;;;;5047577;28;20286;-80
2022/01/27 01:40:59;;;;;;;17.58;8.75;;;4.30;99.90;;;;;;5054428;28;20852;-77
2022/01/27 01:43:29;;;;;;;20.48;11.38;;;4.30;99.90;;;;;;5059224;28;20202;-78
2022/01/27 01:45:57;;;;;;;20.80;10.57;;;4.30;99.90;;;;;;5050491;28;20216;-79
2022/01/27 01:48:26;;;;;;;16.77;9.02;;;4.50;99.90;;;;;;5049392;28;20290;-77
2022/01/27 01:50:55;;;;;;;21.45;10.85;;;4.30;99.90;;;;;;5061174;28;20196;-77
2022/01/27 01:53:23;;;;;;;21.75;10.60;;;4.30;99.90;;;;;;5057094;28;20203;-77
2022/01/27 01:55:51;;;;;;;18.70;10.38;;;4.20;99.90;;;;;;5044975;28;20226;-78
2022/01/27 01:58:19;;;;;;;20.45;11.05;;;4.30;99.90;;;;;;5039840;28;20222;-80
2022/01/27 02:00:49;;;;;;;23.17;10.48;;;4.20;99.90;;;;;;5054522;28;20202;-77
2022/01/27 02:03:17;;;;;;;20.10;9.35;;;4.40;99.90;;;;;;5061623;28;20199;-81
2022/01/27 02:05:51;;;;;;;19.38;10.00;;;4.20;99.90;;;;;;5055570;28;20211;-79
2022/01/27 02:08:45;;;;;;;23.55;11.48;;;4.10;99.90;;;;;;5057669;28;20200;-77
2022/01/27 02:19:31;;;;;;;21.10;11.10;;;4.30;99.90;;;;;;5045273;28;20209;-76
2022/01/27 02:22:03;;;;;;;22.15;9.40;;;4.20;99.90;;;;;;5048382;28;20205;-78
2022/01/27 02:24:33;;;;;;;16.23;9.68;;;3.90;99.90;;;;;;5054758;28;20208;-78
2022/01/27 02:27:03;;;;;;;22.38;9.30;;;3.80;99.90;;;;;;5051108;28;20234;-77
2022/01/27 02:29:32;;;;;;;16.95;9.25;;;3.80;99.90;;;;;;5059360;28;20211;-76
2022/01/27 02:32:01;;;;;;;23.80;10.48;;;3.80;99.90;;;;;;5056552;28;20282;-77
2022/01/27 02:34:30;;;;;;;21.92;9.65;;;3.80;99.90;;;;;;5062086;28;20197;-77
2022/01/27 02:36:58;;;;;;;21.38;9.60;;;4.00;99.90;;;;;;5042654;28;20222;-77
2022/01/27 02:39:28;;;;;;;21.17;10.07;;;4.00;99.90;;;;;;5056382;28;20199;-76
2022/01/27 02:42:01;;;;;;;18.05;10.25;;;4.10;99.90;;;;;;5051353;28;20274;-78
2022/01/27 02:44:34;;;;;;;23.63;11.63;;;4.10;99.90;;;;;;5040788;28;20314;-76
2022/01/27 02:47:03;;;;;;;17.13;11.27;;;4.00;99.90;;;;;;5055245;28;20219;-80
2022/01/27 02:49:31;;;;;;;19.90;10.20;;;4.00;99.90;;;;;;5062773;28;20222;-77
2022/01/27 02:51:59;;;;;;;18.00;9.93;;;3.90;99.90;;;;;;5042958;28;20199;-75
2022/01/27 02:54:29;;;;;;;24.00;12.07;;;3.90;99.90;;;;;;5045998;28;20205;-77
2022/01/27 02:57:19;;;;;;;16.95;9.07;;;3.90;99.90;;;;;;5063243;28;20289;-77
2022/01/27 02:59:47;;;;;;;19.10;9.85;;;3.80;99.90;;;;;;5057940;28;20206;-78
2022/01/27 03:02:16;;;;;;;22.48;9.95;;;3.80;99.90;;;;;;5058507;28;20265;-78
2022/01/27 03:04:44;;;;;;;19.45;10.38;;;3.70;99.90;;;;;;5058582;28;20208;-76
2022/01/27 03:07:14;;;;;;;26.33;11.43;;;3.70;99.90;;;;;;5051271;28;20841;-79
2022/01/27 03:09:43;;;;;;;21.80;10.63;;;3.70;99.90;;;;;;5047543;28;20224;-77
2022/01/27 03:12:13;;;;;;;25.42;12.60;;;3.80;99.90;;;;;;5048691;28;20200;-76
2022/01/27 03:14:42;;;;;;;18.90;10.27;;;3.80;99.90;;;;;;5056257;28;20197;-77
2022/01/27 03:17:12;;;;;;;21.77;9.75;;;3.70;99.90;;;;;;5051246;28;20321;-77
2022/01/27 03:19:40;;;;;;;16.83;8.77;;;3.80;99.90;;;;;;5060170;28;20205;-77
2022/01/27 03:22:09;;;;;;;24.63;10.25;;;3.80;99.90;;;;;;5051187;28;20626;-77
2022/01/27 03:24:38;;;;;;;22.90;11.98;;;3.80;99.90;;;;;;5061084;28;20283;-78
2022/01/27 03:27:15;;;;;;;19.08;10.00;;;3.90;99.90;;;;;;5058575;28;20323;-77
2022/01/27 03:29:44;;;;;;;18.98;10.10;;;3.90;99.90;;;;;;5062472;28;20218;-76
2022/01/27 03:32:12;;;;;;;18.80;10.13;;;3.80;99.90;;;;;;5051107;28;20692;-77
2022/01/27 03:34:41;;;;;;;22.30;12.30;;;3.80;99.90;;;;;;5044829;28;20206;-76
2022/01/27 03:37:10;;;;;;;28.38;11.07;;;3.80;99.90;;;;;;5058134;28;20734;-79
2022/01/27 03:39:40;;;;;;;21.05;11.02;;;4.00;99.90;;;;;;5058969;28;20207;-78
2022/01/27 03:42:10;;;;;;;22.83;10.13;;;3.90;99.90;;;;;;5058858;28;20208;-78
2022/01/27 03:44:38;;;;;;;19.92;9.68;;;3.90;99.90;;;;;;5052675;28;20274;-78
2022/01/27 03:47:07;;;;;;;25.88;10.90;;;3.90;99.90;;;;;;5058441;28;20247;-77
2022/01/27 03:49:36;;;;;;;21.38;11.18;;;3.90;99.90;;;;;;5053429;28;20224;-76
2022/01/27 03:52:04;;;;;;;17.58;10.65;;;4.00;99.90;;;;;;5049375;28;20201;-78
2022/01/27 03:54:32;;;;;;;20.77;9.50;;;4.00;99.90;;;;;;5062538;28;20257;-79
2022/01/27 03:57:01;;;;;;;22.95;10.85;;;4.00;99.90;;;;;;5059360;28;20225;-78
2022/01/27 03:59:31;;;;;;;19.20;9.10;;;3.90;99.90;;;;;;5049022;28;20206;-76
2022/01/27 04:01:59;;;;;;;22.27;10.48;;;4.00;99.90;;;;;;5053828;28;20608;-77
2022/01/27 04:04:29;;;;;;;17.17;10.05;;;3.80;99.90;;;;;;5059285;28;20562;-78
2022/01/27 04:06:59;;;;;;;21.92;9.38;;;3.80;99.90;;;;;;5065373;28;20239;-77
2022/01/27 04:09:28;;;;;;;21.30;11.35;;;3.80;99.90;;;;;;5041372;28;20200;-77
2022/01/27 04:11:57;;;;;;;28.42;12.07;;;3.80;99.90;;;;;;5051020;28;20216;-76
2022/01/27 04:14:25;;;;;;;23.80;11.18;;;3.90;99.90;;;;;;5050903;28;20199;-76
2022/01/27 04:16:54;;;;;;;19.83;10.43;;;3.70;99.90;;;;;;5053391;28;20235;-78
2022/01/27 04:19:23;;;;;;;18.60;10.20;;;3.40;99.90;;;;;;5058790;28;20200;-77
2022/01/27 04:21:51;;;;;;;24.98;11.57;;;3.30;99.90;;;;;;5055585;28;20554;-77
2022/01/27 04:24:19;;;;;;;19.90;10.00;;;3.40;99.90;;;;;;5057954;28;20209;-79
2022/01/27 04:26:54;;;;;;;23.52;11.00;;;3.40;99.90;;;;;;5056464;28;20885;-78
2022/01/27 04:29:23;;;;;;;21.30;9.68;;;3.40;99.90;;;;;;5052844;28;20208;-78
2022/01/27 04:31:52;;;;;;;21.73;12.40;;;3.30;99.90;;;;;;5042606;28;20233;-77
2022/01/27 04:34:22;;;;;;;23.17;11.25;;;3.10;99.90;;;;;;5059437;28;20218;-77
2022/01/27 04:36:52;;;;;;;20.40;9.98;;;2.80;99.90;;;;;;5053107;28;20222;-79
2022/01/27 04:39:27;;;;;;;19.83;10.80;;;2.80;99.90;;;;;;5057313;28;20639;-77
2022/01/27 04:42:00;;;;;;;22.65;10.77;;;3.00;99.90;;;;;;5057079;28;20212;-77
2022/01/27 04:44:35;;;;;;;19.90;10.45;;;2.90;99.90;;;;;;5059883;28;20673;-77
2022/01/27 04:47:08;;;;;;;25.85;9.80;;;3.00;99.90;;;;;;5045723;28;20236;-77
2022/01/27 04:49:38;;;;;;;23.02;10.73;;;2.70;99.90;;;;;;5049744;28;20341;-77
2022/01/27 04:52:07;;;;;;;25.88;10.05;;;2.90;99.90;;;;;;5052876;28;20235;-77
2022/01/27 04:54:42;;;;;;;17.50;10.05;;;3.00;99.90;;;;;;5054778;28;20301;-79
2022/01/27 04:57:11;;;;;;;20.90;9.45;;;3.10;99.90;;;;;;5053104;28;20281;-76
2022/01/27 04:59:42;;;;;;;25.25;10.70;;;3.20;99.90;;;;;;5045000;28;20259;-77
2022/01/27 05:02:17;;;;;;;18.02;9.32;;;3.10;99.90;;;;;;5049509;28;20208;-77
2022/01/27 05:04:50;;;;;;;19.90;9.57;;;3.10;99.90;;;;;;5059924;28;20196;-78
2022/01/27 05:07:39;;;;;;;17.63;8.80;;;3.20;99.90;;;;;;5047310;28;20252;-78
2022/01/27 05:10:12;;;;;;;19.70;9.63;;;3.30;99.90;;;;;;5045445;28;20204;-77
2022/01/27 05:12:45;;;;;;;22.10;9.27;;;3.30;99.90;;;;;;5058836;28;20195;-80
2022/01/27 05:15:14;;;;;;;16.08;8.98;;;3.30;99.90;;;;;;5048464;28;20210;-77
2022/01/27 05:17:42;;;;;;;16.70;8.43;;;3.30;99.90;;;;;;5050825;28;20808;-77
2022/01/27 05:20:12;;;;;;;19.77;9.05;;;3.30;99.90;;;;;;5056002;28;20203;-77
2022/01/27 05:22:40;;;;;;;17.42;9.48;;;3.40;99.90;;;;;;5061976;28;20813;-77
2022/01/27 05:25:09;;;;;;;16.08;8.52;;;3.40;99.90;;;;;;5054031;28;20210;-79
2022/01/27 05:27:37;;;;;;;16.00;8.85;;;3.40;99.90;;;;;;5061415;28;20637;-77
2022/01/27 05:30:08;;;;;;;16.55;8.50;;;3.40;99.90;;;;;;5048577;28;20198;-79
2022/01/27 05:32:36;;;;;;;17.38;9.02;;;3.30;99.90;;;;;;5051853;28;20211;-77
2022/01/27 05:35:05;;;;;;;12.73;8.95;;;3.20;99.90;;;;;;5049276;28;20198;-77
2022/01/27 05:37:34;;;;;;;18.30;8.90;;;3.20;99.90;;;;;;5056898;28;20307;-80
2022/01/27 05:40:03;;;;;;;20.20;9.95;;;3.30;99.90;;;;;;5052016;28;20235;-77
2022/01/27 05:42:31;;;;;;;17.02;8.10;;;3.30;99.90;;;;;;5048242;28;20220;-78
2022/01/27 05:45:00;;;;;;;15.43;9.38;;;3.30;99.90;;;;;;5041515;28;20209;-77
2022/01/27 05:47:28;;;;;;;17.83;9.35;;;3.30;99.90;;;;;;5057256;28;20229;-77
2022/01/27 05:49:56;;;;;;;22.45;10.32;;;3.20;99.90;;;;;;5048584;28;20212;-77
2022/01/27 05:52:24;;;;;;;22.40;10.43;;;3.30;99.90;;;;;;5051723;28;20575;-77
2022/01/27 05:54:54;;;;;;;28.13;11.57;;;3.40;99.90;;;;;;5053333;28;20682;-78
2022/01/27 05:57:22;;;;;;;23.08;9.27;;;3.40;99.90;;;;;;5055688;28;20318;-77
2022/01/27 05:59:55;;;;;;;17.05;8.98;;;3.30;99.90;;;;;;5049177;28;20209;-78
2022/01/27 06:02:24;;;;;;;17.58;8.55;;;3.40;99.90;;;;;;5046351;28;20187;-77
2022/01/27 06:04:52;;;;;;;20.50;8.48;;;3.40;99.90;;;;;;5048500;28;20201;-78
2022/01/27 06:07:21;;;;;;;17.13;8.90;;;3.60;99.90;;;;;;5057341;28;20226;-77
2022/01/27 06:09:50;;;;;;;19.48;9.70;;;3.50;99.90;;;;;;5044605;28;20261;-78
2022/01/27 06:12:19;;;;;;;20.52;9.13;;;3.40;99.90;;;;;;5049128;28;20242;-77
2022/01/27 06:14:47;;;;;;;17.65;9.60;;;3.40;99.90;;;;;;5053216;28;20232;-78
2022/01/27 06:17:16;;;;;;;18.52;8.68;;;3.40;99.90;;;;;;5060253;28;20240;-77
2022/01/27 06:19:46;;;;;;;18.10;9.52;;;3.40;99.90;;;;;;5047127;28;20275;-78
2022/01/27 06:22:16;;;;;;;19.10;9.57;;;3.40;99.90;;;;;;5041093;28;20206;-78
2022/01/27 06:24:45;;;;;;;17.38;9.25;;;3.40;99.90;;;;;;5048543;28;20202;-77
2022/01/27 06:27:14;;;;;;;25.50;11.00;;;3.40;99.90;;;;;;5064270;28;20211;-78
2022/01/27 06:29:44;;;;;;;18.55;9.38;;;3.40;99.90;;;;;;5057242;28;20710;-78
2022/01/27 06:32:12;;;;;;;21.20;10.10;;;3.40;99.90;;;;;;5045464;28;20244;-78
2022/01/27 06:34:40;;;;;;;21.00;9.20;;;3.40;99.90;;;;;;5052867;28;20201;-78
2022/01/27 06:37:08;;;;;;;20.27;8.85;;;3.40;99.90;;;;;;5052239;28;20222;-78
2022/01/27 06:39:37;;;;;;;15.90;8.65;;;3.50;99.90;;;;;;5042909;28;20235;-78
2022/01/27 06:42:07;;;;;;;22.67;10.90;;;3.50;99.90;;;;;;5053264;28;20206;-77
2022/01/27 06:44:35;;;;;;;18.58;8.70;;;3.50;99.90;;;;;;5039324;28;20217;-78
2022/01/27 06:47:05;;;;;;;19.15;9.38;;;3.40;99.90;;;;;;5047148;28;20222;-77
2022/01/27 06:49:34;;;;;;;17.70;9.15;;;3.40;99.90;;;;;;5048843;28;20199;-77
2022/01/27 06:52:02;;;;;;;20.80;7.90;;;3.50;99.90;;;;;;5059530;28;20229;-77
2022/01/27 06:54:31;;;;;;;22.88;10.30;;;3.50;99.90;;;;;;5043435;28;20211;-79
2022/01/27 06:56:59;;;;;;;20.30;10.52;;;3.50;99.90;;;;;;5051647;28;20588;-78
2022/01/27 06:59:28;;;;;;;18.20;8.85;;;3.50;99.90;;;;;;5043550;28;20227;-80
2022/01/27 07:01:56;;;;;;;12.38;8.02;;;3.50;99.90;;;;;;5058028;28;20220;-77
2022/01/27 07:04:25;;;;;;;24.77;9.45;;;3.70;99.90;;;;;;5052062;28;20223;-78
2022/01/27 07:06:54;;;;;;;18.40;9.40;;;3.60;99.90;;;;;;5032999;28;20674;-77
2022/01/27 07:09:22;;;;;;;15.65;8.10;;;3.50;99.90;;;;;;5054006;28;20212;-78
2022/01/27 07:11:50;;;;;;;20.52;10.40;;;3.50;99.90;;;;;;5036582;28;20502;-79
2022/01/27 07:14:19;;;;;;;29.10;12.68;;;3.50;99.90;;;;;;5049944;28;20209;-80
2022/01/27 07:16:47;;;;;;;19.35;9.30;;;3.50;99.90;;;;;;5046712;28;20220;-77
2022/01/27 07:19:15;;;;;;;23.13;9.98;;;3.50;99.90;;;;;;5051067;28;20702;-79
2022/01/27 07:21:45;;;;;;;21.67;9.98;;;3.50;99.90;;;;;;5040908;28;20195;-78
2022/01/27 07:24:13;;;;;;;22.00;10.25;;;3.50;99.90;;;;;;5049418;28;20207;-77
2022/01/27 07:26:41;;;;;;;20.70;11.05;;;3.50;99.90;;;;;;5052079;28;20439;-79
2022/01/27 07:29:09;;;;;;;17.77;10.40;;;3.50;99.90;;;;;;5046599;28;20884;-78
2022/01/27 07:31:38;;;;;;;20.42;9.88;;;3.80;99.90;;;;;;5046522;28;20471;-78
2022/01/27 07:34:06;;;;;;;15.60;8.68;;;3.60;99.90;;;;;;5049320;28;20696;-78
2022/01/27 07:36:34;;;;;;;19.27;9.07;;;3.50;99.90;;;;;;5050118;28;20235;-78
2022/01/27 07:39:04;;;;;;;14.02;8.77;;;3.60;99.90;;;;;;5042232;28;20212;-78
2022/01/27 07:41:37;;;;;;;20.90;9.55;;;3.60;99.90;;;;;;5049472;28;20221;-78
2022/01/27 07:44:06;;;;;;;19.65;7.90;;;3.60;99.90;;;;;;5049899;28;20210;-78
2022/01/27 07:46:34;;;;;;;20.83;9.57;;;3.60;99.90;;;;;;5043483;28;20243;-79
2022/01/27 07:49:03;;;;;;;19.92;7.93;;;3.50;99.90;;;;;;5047930;28;20199;-79
2022/01/27 07:51:31;;;;;;;15.68;7.65;;;3.50;99.90;;;;;;5043556;28;20209;-79
2022/01/27 07:53:59;;;;;;;17.85;7.88;;;3.60;99.90;;;;;;5043946;28;20235;-77
2022/01/27 07:56:33;;;;;;;18.50;8.15;;;3.60;99.90;;;;;;5052055;28;20227;-78
2022/01/27 07:59:02;;;;;;;18.90;8.00;;;3.60;99.90;;;;;;5036329;28;21090;-79
2022/01/27 08:01:30;;;;;;;22.73;9.77;;;3.90;99.90;;;;;;5046577;28;20689;-78
2022/01/27 08:03:58;;;;;;;18.48;9.18;;;3.60;99.90;;;;;;5038604;28;20201;-77
2022/01/27 08:06:27;;;;;;;13.77;7.80;;;3.60;99.90;;;;;;5037369;28;20251;-78
2022/01/27 08:08:55;;;;;;;16.95;7.85;;;3.60;99.90;;;;;;5043217;28;20202;-78
2022/01/27 08:11:23;;;;;;;17.02;9.40;;;3.60;99.90;;;;;;5059603;28;20678;-78
2022/01/27 08:13:53;;;;;;;16.77;8.23;;;3.60;99.90;;;;;;5056083;28;20211;-77
2022/01/27 08:16:21;;;;;;;19.70;7.50;;;4.00;99.90;;;;;;5048268;28;20211;-78
2022/01/27 08:18:50;;;;;;;16.42;6.50;;;3.70;99.90;;;;;;5042110;28;20292;-78
2022/01/27 08:21:18;;;;;;;15.27;6.85;;;3.60;99.90;;;;;;5043268;28;20255;-79
2022/01/27 08:23:47;;;;;;;14.32;7.47;;;3.70;99.90;;;;;;5049739;28;20230;-76
2022/01/27 08:26:27;;;;;;;10.55;6.45;;;3.70;99.90;;;;;;5049631;28;20231;-78
2022/01/27 08:29:08;;;;;;;13.43;7.30;;;3.80;99.90;;;;;;5053544;28;20195;-76
2022/01/27 08:31:43;;;;;;;15.02;7.72;;;3.70;99.90;;;;;;5047290;28;20199;-77
2022/01/27 08:34:17;;;;;;;12.77;7.22;;;3.80;99.90;;;;;;5041904;28;21410;-78
2022/01/27 08:36:46;;;;;;;17.85;8.40;;;3.70;99.90;;;;;;5039987;28;20229;-78
2022/01/27 08:39:19;;;;;;;14.05;7.70;;;3.80;99.90;;;;;;5040216;28;20196;-80
2022/01/27 08:41:47;;;;;;;11.50;7.00;;;3.80;99.90;;;;;;5038371;28;20301;-78
2022/01/27 08:44:17;;;;;;;12.38;5.93;;;3.80;99.90;;;;;;5050191;28;20606;-78
2022/01/27 08:46:45;;;;;;;19.63;8.20;;;3.90;99.90;;;;;;5046147;28;20691;-78
2022/01/27 08:49:14;;;;;;;18.30;8.98;;;3.90;99.90;;;;;;5046336;28;20612;-79
2022/01/27 08:51:42;;;;;;;14.68;7.57;;;3.90;99.90;;;;;;5042400;28;20646;-77
2022/01/27 08:54:11;;;;;;;21.48;8.85;;;3.90;99.90;;;;;;5042405;28;20278;-78
2022/01/27 08:56:39;;;;;;;17.52;8.65;;;3.90;99.90;;;;;;5039588;28;20227;-77
2022/01/27 08:59:07;;;;;;;13.85;7.03;;;3.90;99.90;;;;;;5048776;28;20249;-79
2022/01/27 09:01:38;;;;;;;18.27;8.40;;;3.90;99.90;;;;;;5037725;28;20200;-78
2022/01/27 09:04:07;;;;;;;19.08;6.28;;;3.90;99.90;;;;;;5037712;28;20194;-78
2022/01/27 09:06:36;;;;;;;15.85;8.52;;;3.90;99.90;;;;;;5037528;28;20227;-77
2022/01/27 09:09:05;;;;;;;16.65;7.43;;;3.90;99.90;;;;;;5040202;28;20769;-78
2022/01/27 09:11:34;;;;;;;15.75;8.40;;;3.90;99.90;;;;;;5042987;28;20204;-77
2022/01/27 09:14:04;;;;;;;16.67;7.35;;;3.90;99.90;;;;;;5039789;28;20223;-78
2022/01/27 09:16:34;;;;;;;17.40;7.30;;;3.90;99.90;;;;;;5040324;28;20258;-80
2022/01/27 09:19:25;;;;;;;18.90;9.07;;;3.80;99.90;;;;;;5034692;28;20880;-81
2022/01/27 09:21:54;;;;;;;13.13;7.75;;;3.80;99.90;;;;;;5042064;28;20341;-78
2022/01/27 09:24:35;;;;;;;20.70;7.93;;;3.90;99.90;;;;;;5040209;28;20263;-79
2022/01/27 09:27:04;;;;;;;16.52;6.55;;;3.90;99.90;;;;;;5049335;28;20235;-78
2022/01/27 09:29:33;;;;;;;15.30;8.05;;;4.00;99.90;;;;;;5043382;28;20258;-78
2022/01/27 09:32:02;;;;;;;21.40;7.78;;;4.10;99.90;;;;;;5048797;28;20211;-78
2022/01/27 09:34:32;;;;;;;19.55;8.35;;;4.10;99.90;;;;;;5047690;28;20230;-78
2022/01/27 09:37:02;;;;;;;20.63;8.65;;;4.10;99.90;;;;;;5040703;28;20732;-78
2022/01/27 09:39:31;;;;;;;16.17;9.20;;;4.00;99.90;;;;;;5043413;28;20975;-78
2022/01/27 09:42:00;;;;;;;17.10;8.57;;;4.10;99.90;;;;;;5054876;28;20232;-77
2022/01/27 09:44:31;;;;;;;15.35;7.35;;;4.10;99.90;;;;;;5049642;28;20308;-77
2022/01/27 09:47:02;;;;;;;16.55;7.25;;;4.00;99.90;;;;;;5040732;28;20229;-77
2022/01/27 09:49:36;;;;;;;11.60;6.38;;;3.80;99.90;;;;;;5036498;28;20730;-77
2022/01/27 09:52:06;;;;;;;15.23;7.05;;;4.10;99.90;;;;;;5053214;28;20205;-79
2022/01/27 09:54:35;;;;;;;11.52;5.72;;;4.20;99.90;;;;;;5039156;28;20220;-77
2022/01/27 09:57:05;;;;;;;9.77;4.60;;;4.10;99.90;;;;;;5037172;28;20230;-78
2022/01/27 09:59:33;;;;;;;9.82;5.05;;;3.90;99.90;;;;;;5040310;28;20750;-77
2022/01/27 10:02:05;;;;;;;8.73;5.32;;;3.70;99.90;;;;;;5040084;28;20197;-78
2022/01/27 10:04:45;;;;;;;16.92;5.53;;;3.50;99.90;;;;;;5045445;28;20198;-78
2022/01/27 10:07:15;;;;;;;11.30;6.07;;;3.50;99.90;;;;;;5039954;28;20259;-78
2022/01/27 10:10:00;;;;;;;11.73;4.88;;;3.20;99.90;;;;;;5041363;28;20209;-77
2022/01/27 10:12:32;;;;;;;9.85;5.78;;;3.10;99.90;;;;;;5045240;28;20224;-77
2022/01/27 10:15:02;;;;;;;9.25;4.25;;;3.30;99.90;;;;;;5050784;28;20214;-77
2022/01/27 10:17:33;;;;;;;7.75;4.38;;;3.40;99.90;;;;;;5043322;28;20219;-76
2022/01/27 10:20:03;;;;;;;5.88;3.67;;;3.40;99.90;;;;;;5045708;28;20208;-77
2022/01/27 10:22:32;;;;;;;8.25;4.00;;;3.50;99.90;;;;;;5041716;28;20391;-77
2022/01/27 10:25:02;;;;;;;9.40;3.58;;;3.30;99.90;;;;;;5039859;28;20207;-75
2022/01/27 10:27:34;;;;;;;8.73;3.88;;;3.30;99.90;;;;;;5047809;28;20215;-76
2022/01/27 10:32:51;;;;;;;9.90;3.42;;;3.30;99.90;;;;;;5036719;28;20711;-78
2022/01/27 10:35:24;;;;;;;7.68;4.40;;;3.40;99.90;;;;;;5040753;28;20290;-77
2022/01/27 10:37:58;;;;;;;5.85;3.90;;;3.60;99.90;;;;;;5051768;28;20253;-78
2022/01/27 10:40:29;;;;;;;6.85;4.03;;;3.90;99.90;;;;;;5050231;28;20290;-77
2022/01/27 10:43:07;;;;;;;10.10;4.28;;;4.00;99.90;;;;;;5047932;28;20283;-78
2022/01/27 10:45:36;;;;;;;8.45;3.88;;;3.80;99.90;;;;;;5051043;28;20198;-77
2022/01/27 10:48:17;;;;;;;8.68;4.05;;;3.80;99.90;;;;;;5045522;28;20230;-77
2022/01/27 10:50:59;;;;;;;9.85;4.85;;;3.70;99.90;;;;;;5051133;28;20250;-78
2022/01/27 10:53:43;;;;;;;9.02;4.65;;;3.80;99.90;;;;;;5063131;28;20196;-77
2022/01/27 10:56:16;;;;;;;8.63;4.55;;;3.60;99.90;;;;;;5046773;28;20240;-78
2022/01/27 10:58:45;;;;;;;10.27;5.35;;;4.00;99.90;;;;;;5051016;28;20283;-77
2022/01/27 11:01:26;;;;;;;13.57;5.20;;;3.60;99.90;;;;;;5042529;28;20216;-78
2022/01/27 11:03:58;;;;;;;9.80;5.85;;;3.60;99.90;;;;;;5047812;28;20618;-77
2022/01/27 11:06:31;;;;;;;11.98;5.45;;;3.70;99.90;;;;;;5041695;28;20232;-77
2022/01/27 11:09:05;;;;;;;11.25;5.43;;;3.60;99.90;;;;;;5043247;28;20852;-77
2022/01/27 11:11:35;;;;;;;11.50;5.57;;;3.50;99.90;;;;;;5043520;28;20219;-79
2022/01/27 11:14:04;;;;;;;9.45;4.32;;;3.60;99.90;;;;;;5039222;28;20220;-79
2022/01/27 11:16:39;;;;;;;10.57;5.35;;;3.80;99.90;;;;;;5044507;28;20307;-78
2022/01/27 11:19:35;;;;;;;14.05;6.13;;;3.80;99.90;;;;;;5058377;28;20944;-78
2022/01/27 11:22:10;;;;;;;13.48;5.55;;;3.70;99.90;;;;;;5036512;28;20211;-80
2022/01/27 11:25:06;;;;;;;10.25;5.50;;;3.80;99.90;;;;;;5046133;28;20203;-79
2022/01/27 11:27:36;;;;;;;13.85;4.90;;;3.60;99.90;;;;;;5050236;28;20226;-78
2022/01/27 11:30:08;;;;;;;12.07;5.68;;;3.60;99.90;;;;;;5047852;28;20200;-77
2022/01/27 11:32:40;;;;;;;12.18;6.00;;;3.40;99.90;;;;;;5046037;28;20456;-79
2022/01/27 11:35:18;;;;;;;14.10;5.50;;;3.10;99.90;;;;;;5042699;28;20228;-78
2022/01/27 11:37:52;;;;;;;13.00;6.68;;;3.00;99.90;;;;;;5054882;28;20221;-78
2022/01/27 11:40:23;;;;;;;15.15;6.18;;;3.40;99.90;;;;;;5043605;28;20204;-78
2022/01/27 11:43:12;;;;;;;14.30;7.95;;;3.40;99.90;;;;;;5050349;28;20480;-78
2022/01/27 11:45:42;;;;;;;10.05;6.05;;;3.40;99.90;;;;;;5047355;28;20205;-77
2022/01/27 11:48:13;;;;;;;10.82;5.70;;;3.50;99.90;;;;;;5048135;28;20228;-79
2022/01/27 11:50:51;;;;;;;11.30;5.90;;;3.60;99.90;;;;;;5050224;28;20207;-77
2022/01/27 11:53:36;;;;;;;12.88;6.38;;;3.70;99.90;;;;;;5048498;28;20398;-78
2022/01/27 11:56:07;;;;;;;14.85;6.20;;;3.60;99.90;;;;;;5040555;28;20227;-80
2022/01/27 11:58:47;;;;;;;10.13;5.38;;;3.60;99.90;;;;;;5057792;28;20239;-78
2022/01/27 12:01:23;;;;;;;14.70;5.50;;;3.80;99.90;;;;;;5046182;28;20684;-78
2022/01/27 12:04:12;;;;;;;11.27;4.93;;;3.40;99.90;;;;;;5048323;28;20207;-77
2022/01/27 12:06:41;;;;;;;12.52;5.78;;;3.40;99.90;;;;;;5050988;28;20316;-78
2022/01/27 12:09:31;;;;;;;9.18;5.80;;;3.40;99.90;;;;;;5045381;28;20274;-79
2022/01/27 12:12:02;;;;;;;12.73;5.90;;;3.40;99.90;;;;;;5052129;28;20312;-79
2022/01/27 12:15:02;;;;;;;11.52;6.93;;;3.20;99.90;;;;;;5038048;28;20715;-77
2022/01/27 12:17:31;;;;;;;11.52;5.25;;;3.40;99.90;;;;;;5039507;28;20820;-78
2022/01/27 12:20:01;;;;;;;11.43;6.35;;;3.80;99.90;;;;;;5043550;28;20218;-79
2022/01/27 12:23:01;;;;;;;11.07;5.38;;;3.60;99.90;;;;;;5037623;28;20212;-78
2022/01/27 12:25:52;;;;;;;13.07;5.20;;;3.60;99.90;;;;;;5052470;28;20627;-79
2022/01/27 12:28:21;;;;;;;11.07;6.43;;;3.40;99.90;;;;;;5052928;28;20216;-78
2022/01/27 12:31:02;;;;;;;10.90;5.93;;;3.60;99.90;;;;;;5038444;28;20207;-78
2022/01/27 12:33:31;;;;;;;13.80;7.53;;;3.60;99.90;;;;;;5048780;28;20207;-75
2022/01/27 12:36:22;;;;;;;15.65;6.43;;;3.70;99.90;;;;;;5047362;28;20284;-78
2022/01/27 12:38:50;;;;;;;13.18;5.90;;;3.70;99.90;;;;;;5052063;28;20211;-78
2022/01/27 12:41:21;;;;;;;13.18;7.75;;;3.60;99.90;;;;;;5051368;28;20199;-78
2022/01/27 12:43:52;;;;;;;13.07;5.65;;;3.70;99.90;;;;;;5058062;28;20211;-78
2022/01/27 12:46:20;;;;;;;14.70;7.85;;;4.00;99.90;;;;;;5051675;28;20871;-79
2022/01/27 12:48:50;;;;;;;12.82;6.20;;;4.10;99.90;;;;;;5056489;28;20275;-79
2022/01/27 12:51:55;;;;;;;8.25;5.35;;;3.90;99.90;;;;;;5053540;28;20197;-79
2022/01/27 12:54:27;;;;;;;12.05;6.25;;;3.90;99.90;;;;;;5044707;28;20219;-79
2022/01/27 12:56:57;;;;;;;8.85;6.60;;;4.20;99.90;;;;;;5057870;28;20215;-78
2022/01/27 12:59:31;;;;;;;11.80;6.60;;;3.70;99.90;;;;;;5039666;28;20443;-78
2022/01/27 13:02:00;;;;;;;10.68;6.93;;;3.60;99.90;;;;;;5050976;28;20228;-78
2022/01/27 13:04:29;;;;;;;10.40;6.15;;;3.80;99.90;;;;;;5041000;28;20255;-79
2022/01/27 13:06:58;;;;;;;13.48;6.35;;;3.80;99.90;;;;;;5048763;28;20232;-80
2022/01/27 13:09:28;;;;;;;13.10;6.70;;;3.90;99.90;;;;;;5049964;28;20612;-77
2022/01/27 13:12:00;;;;;;;11.93;6.72;;;3.80;99.90;;;;;;5055398;28;20286;-79
2022/01/27 13:14:28;;;;;;;12.75;5.90;;;3.90;99.90;;;;;;5046280;28;20233;-78
2022/01/27 13:17:03;;;;;;;10.13;5.28;;;3.90;99.90;;;;;;5045743;28;20273;-79
2022/01/27 13:19:44;;;;;;;13.77;6.30;;;4.00;99.90;;;;;;5048169;28;20204;-78
2022/01/27 13:22:17;;;;;;;13.55;5.97;;;4.00;99.90;;;;;;5048749;28;20198;-78
2022/01/27 13:24:48;;;;;;;12.38;6.55;;;4.00;99.90;;;;;;5049168;28;20199;-78
2022/01/27 13:27:17;;;;;;;10.00;5.47;;;4.00;99.90;;;;;;5046985;28;20221;-78
2022/01/27 13:29:47;;;;;;;16.02;6.43;;;4.30;99.90;;;;;;5049339;28;20712;-79
2022/01/27 13:32:16;;;;;;;10.75;6.40;;;4.50;99.90;;;;;;5046686;28;20213;-78